createdAt,value
2018-09-28T00:01:02.644Z,5.73
2018-09-28T00:03:31.060Z,7.53
2018-09-28T00:05:58.380Z,5.53
2018-09-28T00:08:25.636Z,5.70
2018-09-28T00:10:53.128Z,4.83
2018-09-28T00:13:20.404Z,7.40
2018-09-28T00:15:47.625Z,5.73
2018-09-28T00:18:14.853Z,6.50
2018-09-28T00:20:42.084Z,6.43
2018-09-28T00:23:09.337Z,5.40
2018-09-28T00:25:36.779Z,5.07
2018-09-28T00:28:04.053Z,5.67
2018-09-28T00:30:31.309Z,4.92
2018-09-28T00:32:58.553Z,10.30
2018-09-28T00:35:25.780Z,5.12
2018-09-28T00:37:53.088Z,6.80
2018-09-28T00:40:20.324Z,5.17
2018-09-28T00:42:47.594Z,6.75
2018-09-28T00:45:14.836Z,7.30
2018-09-28T00:47:42.062Z,4.67
2018-09-28T00:50:09.297Z,5.83
2018-09-28T00:52:36.521Z,5.17
2018-09-28T00:55:03.829Z,6.53
2018-09-28T00:57:31.083Z,7.20
2018-09-28T00:59:58.332Z,5.30
2018-09-28T01:02:26.465Z,6.78
2018-09-28T01:04:53.776Z,5.22
2018-09-28T01:07:21.039Z,4.45
2018-09-28T01:09:48.289Z,5.53
2018-09-28T01:12:15.537Z,6.65
2018-09-28T01:14:42.821Z,4.90
2018-09-28T01:17:10.172Z,14.98
2018-09-28T01:19:37.401Z,6.62
2018-09-28T01:22:04.687Z,6.80
2018-09-28T01:24:31.933Z,5.45
2018-09-28T01:26:59.172Z,6.58
2018-09-28T01:29:26.483Z,4.72
2018-09-28T01:31:53.730Z,4.50
2018-09-28T01:34:21.005Z,5.15
2018-09-28T01:36:48.264Z,4.47
2018-09-28T01:39:15.529Z,4.08
2018-09-28T01:41:42.789Z,4.53
2018-09-28T01:44:10.087Z,4.80
2018-09-28T01:46:37.333Z,5.78
2018-09-28T01:49:04.585Z,4.78
2018-09-28T01:51:31.836Z,4.62
2018-09-28T01:54:00.097Z,5.62
2018-09-28T01:56:27.361Z,4.25
2018-09-28T01:58:54.699Z,9.10
2018-09-28T02:01:23.100Z,4.70
2018-09-28T02:03:50.352Z,4.17
2018-09-28T02:06:17.588Z,4.05
2018-09-28T02:08:44.814Z,3.50
2018-09-28T02:11:12.062Z,4.70
2018-09-28T02:13:39.296Z,4.50
2018-09-28T02:16:06.545Z,7.12
2018-09-28T02:18:33.793Z,3.73
2018-09-28T02:21:01.035Z,3.87
2018-09-28T02:23:28.272Z,3.40
2018-09-28T02:25:55.642Z,3.33
2018-09-28T02:28:23.060Z,4.10
2018-09-28T02:30:50.337Z,3.62
2018-09-28T02:33:17.588Z,5.17
2018-09-28T02:35:44.820Z,4.03
2018-09-28T02:38:13.324Z,4.40
2018-09-28T02:40:40.952Z,3.62
2018-09-28T02:43:08.184Z,5.83
2018-09-28T02:45:35.440Z,3.62
2018-09-28T02:48:02.692Z,4.62
2018-09-28T02:50:29.956Z,3.52
2018-09-28T02:52:57.352Z,13.75
2018-09-28T02:55:24.645Z,4.08
2018-09-28T02:57:51.901Z,4.47
2018-09-28T03:00:19.791Z,5.25
2018-09-28T03:02:47.041Z,6.25
2018-09-28T03:05:14.296Z,7.12
2018-09-28T03:07:42.553Z,3.05
2018-09-28T03:10:09.802Z,6.47
2018-09-28T03:12:37.128Z,3.65
2018-09-28T03:15:04.408Z,8.55
2018-09-28T03:17:31.672Z,5.72
2018-09-28T03:19:59.419Z,7.55
2018-09-28T03:22:26.678Z,5.42
2018-09-28T03:24:53.917Z,4.62
2018-09-28T03:27:21.158Z,5.78
2018-09-28T03:29:48.440Z,2.62
2018-09-28T03:32:15.676Z,3.58
2018-09-28T03:34:42.930Z,3.98
2018-09-28T03:37:10.231Z,3.83
2018-09-28T03:39:37.467Z,4.53
2018-09-28T03:42:04.716Z,4.92
2018-09-28T03:44:31.963Z,3.00
2018-09-28T03:46:59.231Z,3.22
2018-09-28T03:49:26.488Z,2.67
2018-09-28T03:51:53.773Z,5.03
2018-09-28T03:54:21.053Z,3.35
2018-09-28T03:56:48.301Z,3.30
2018-09-28T03:59:15.560Z,2.42
2018-09-28T04:01:42.805Z,3.55
2018-09-28T04:04:10.058Z,3.90
2018-09-28T04:06:37.900Z,2.72
2018-09-28T04:09:07.457Z,2.90
2018-09-28T04:11:34.714Z,4.57
2018-09-28T04:14:02.021Z,3.42
2018-09-28T04:16:29.300Z,2.13
2018-09-28T04:18:56.544Z,2.55
2018-09-28T04:21:23.811Z,5.62
2018-09-28T04:23:52.073Z,2.90
2018-09-28T04:26:19.330Z,5.93
2018-09-28T04:28:46.596Z,2.93
2018-09-28T04:31:13.862Z,5.30
2018-09-28T04:33:41.120Z,2.50
2018-09-28T04:36:08.348Z,3.12
2018-09-28T04:38:35.600Z,5.73
2018-09-28T04:41:02.888Z,4.92
2018-09-28T04:43:30.116Z,3.65
2018-09-28T04:45:57.956Z,2.92
2018-09-28T04:48:25.217Z,5.72
2018-09-28T04:50:52.496Z,3.22
2018-09-28T04:53:19.755Z,4.75
2018-09-28T04:55:47.025Z,5.45
2018-09-28T04:58:14.951Z,3.30
2018-09-28T05:00:42.236Z,2.45
2018-09-28T05:03:09.500Z,2.98
2018-09-28T05:05:36.766Z,3.22
2018-09-28T05:08:04.030Z,2.90
2018-09-28T05:10:31.721Z,4.70
2018-09-28T05:12:58.968Z,4.72
2018-09-28T05:15:26.288Z,2.57
2018-09-28T05:17:53.565Z,2.45
2018-09-28T05:20:20.817Z,3.08
2018-09-28T05:22:48.078Z,2.77
2018-09-28T05:25:15.376Z,2.20
2018-09-28T05:27:42.796Z,2.57
2018-09-28T05:30:10.221Z,3.27
2018-09-28T05:32:37.673Z,4.70
2018-09-28T05:35:04.783Z,2.43
2018-09-28T05:37:32.040Z,3.03
2018-09-28T05:39:59.380Z,3.40
2018-09-28T05:42:26.616Z,4.90
2018-09-28T05:44:53.836Z,2.75
2018-09-28T05:47:21.469Z,2.93
2018-09-28T05:49:48.789Z,2.80
2018-09-28T05:52:16.104Z,4.15
2018-09-28T05:54:43.415Z,3.67
2018-09-28T05:57:10.701Z,2.50
2018-09-28T05:59:43.717Z,3.50
2018-09-28T06:02:16.752Z,2.93
2018-09-28T06:04:49.712Z,2.80
2018-09-28T06:07:16.975Z,3.20
2018-09-28T06:09:44.264Z,3.67
2018-09-28T06:12:11.508Z,3.73
2018-09-28T06:14:38.748Z,2.60
2018-09-28T06:17:06.674Z,4.10
2018-09-28T06:19:33.924Z,2.73
2018-09-28T06:22:01.238Z,2.00
2018-09-28T06:24:28.484Z,3.83
2018-09-28T06:26:55.765Z,3.57
2018-09-28T06:29:23.104Z,4.10
2018-09-28T06:31:51.365Z,5.73
2018-09-28T06:34:18.600Z,3.23
2018-09-28T06:36:46.137Z,2.50
2018-09-28T06:39:13.362Z,3.37
2018-09-28T06:41:40.648Z,2.50
2018-09-28T06:44:08.026Z,3.93
2018-09-28T06:46:35.246Z,2.97
2018-09-28T06:49:02.504Z,3.00
2018-09-28T06:51:29.725Z,3.90
2018-09-28T06:53:57.064Z,2.97
2018-09-28T06:56:24.296Z,2.30
2018-09-28T06:58:52.594Z,2.93
2018-09-28T07:01:19.843Z,2.93
2018-09-28T07:03:48.100Z,2.57
2018-09-28T07:06:15.382Z,2.37
2018-09-28T07:08:42.623Z,2.97
2018-09-28T07:11:09.864Z,2.57
2018-09-28T07:13:37.132Z,2.50
2018-09-28T07:16:04.374Z,3.93
2018-09-28T07:18:31.600Z,3.47
2018-09-28T07:20:58.861Z,2.80
2018-09-28T07:23:26.120Z,2.30
2018-09-28T07:25:53.373Z,3.37
2018-09-28T07:28:20.677Z,2.10
2018-09-28T07:30:47.898Z,2.60
2018-09-28T07:33:15.156Z,2.37
2018-09-28T07:35:42.453Z,4.80
2018-09-28T07:38:09.680Z,5.30
2018-09-28T07:40:36.928Z,2.80
2018-09-28T07:43:05.252Z,3.30
2018-09-28T07:45:32.472Z,3.33
2018-09-28T07:47:59.889Z,2.40
2018-09-28T07:50:27.054Z,2.83
2018-09-28T07:52:54.292Z,6.60
2018-09-28T07:55:21.563Z,3.60
2018-09-28T07:57:48.832Z,2.33
2018-09-28T08:00:16.095Z,2.30
2018-09-28T08:02:43.341Z,2.53
2018-09-28T08:05:10.593Z,2.60
2018-09-28T08:07:37.855Z,2.40
2018-09-28T08:10:05.149Z,7.80
2018-09-28T08:12:32.412Z,3.23
2018-09-28T08:14:59.889Z,2.07
2018-09-28T08:17:27.139Z,4.67
2018-09-28T08:19:54.424Z,2.50
2018-09-28T08:22:21.712Z,2.60
2018-09-28T08:24:49.268Z,5.53
2018-09-28T08:27:17.696Z,4.57
2018-09-28T08:29:44.949Z,3.50
2018-09-28T08:32:12.161Z,4.70
2018-09-28T08:34:39.432Z,5.30
2018-09-28T08:37:06.685Z,3.93
2018-09-28T08:39:33.980Z,5.67
2018-09-28T08:42:01.242Z,5.77
2018-09-28T08:44:28.497Z,6.97
2018-09-28T08:46:55.749Z,4.63
2018-09-28T08:49:23.126Z,11.33
2018-09-28T08:51:50.256Z,3.50
2018-09-28T08:54:17.518Z,3.37
2018-09-28T08:56:44.746Z,3.80
2018-09-28T08:59:12.071Z,3.93
2018-09-28T09:01:39.331Z,3.47
2018-09-28T09:04:07.609Z,3.43
2018-09-28T09:06:34.856Z,4.27
2018-09-28T09:09:02.172Z,4.13
2018-09-28T09:11:29.406Z,5.97
2018-09-28T09:13:56.616Z,4.40
2018-09-28T09:16:24.392Z,6.63
2018-09-28T09:18:51.739Z,4.70
2018-09-28T09:21:18.976Z,5.33
2018-09-28T09:23:46.265Z,3.70
2018-09-28T09:26:13.456Z,6.43
2018-09-28T09:28:40.695Z,3.77
2018-09-28T09:31:08.128Z,4.43
2018-09-28T09:33:35.381Z,3.90
2018-09-28T09:36:02.625Z,5.73
2018-09-28T09:38:29.881Z,4.03
2018-09-28T09:40:57.107Z,4.30
2018-09-28T09:43:24.344Z,4.70
2018-09-28T09:45:51.588Z,6.03
2018-09-28T09:48:18.808Z,5.13
2018-09-28T09:50:46.029Z,4.30
2018-09-28T09:53:13.241Z,3.67
2018-09-28T09:55:40.504Z,4.00
2018-09-28T09:58:07.795Z,4.20
2018-09-28T10:00:40.688Z,5.97
2018-09-28T10:03:13.705Z,3.40
2018-09-28T10:05:40.932Z,5.53
2018-09-28T10:08:08.152Z,4.70
2018-09-28T10:10:35.402Z,5.93
2018-09-28T10:13:02.683Z,6.07
2018-09-28T10:15:29.896Z,4.40
2018-09-28T10:17:57.124Z,5.10
2018-09-28T10:20:24.356Z,3.90
2018-09-28T10:22:51.581Z,5.60
2018-09-28T10:25:18.831Z,3.90
2018-09-28T10:27:46.108Z,6.20
2018-09-28T10:30:13.311Z,3.70
2018-09-28T10:32:40.563Z,4.13
2018-09-28T10:35:07.796Z,6.17
2018-09-28T10:37:35.021Z,10.67
2018-09-28T10:40:02.292Z,4.80
2018-09-28T10:42:29.552Z,4.60
2018-09-28T10:44:56.804Z,4.40
2018-09-28T10:47:24.032Z,10.20
2018-09-28T10:49:51.248Z,5.30
2018-09-28T10:52:18.769Z,7.47
2018-09-28T10:54:45.754Z,4.90
2018-09-28T10:57:13.088Z,3.70
2018-09-28T10:59:40.333Z,4.57
2018-09-28T11:02:07.572Z,5.27
2018-09-28T11:04:35.044Z,3.27
2018-09-28T11:07:02.285Z,4.67
2018-09-28T11:09:29.647Z,4.37
2018-09-28T11:11:56.889Z,5.40
2018-09-28T11:14:24.104Z,5.53
2018-09-28T11:16:51.324Z,8.90
2018-09-28T11:19:18.564Z,3.03
2018-09-28T11:21:45.854Z,5.63
2018-09-28T11:24:13.029Z,4.63
2018-09-28T11:26:40.265Z,6.73
2018-09-28T11:29:07.531Z,8.87
2018-09-28T11:31:34.763Z,6.07
2018-09-28T11:34:02.034Z,9.23
2018-09-28T11:36:29.352Z,3.97
2018-09-28T11:38:56.576Z,3.53
2018-09-28T11:41:23.844Z,4.37
2018-09-28T11:43:51.065Z,8.10
2018-09-28T11:46:18.303Z,4.97
2018-09-28T11:48:45.599Z,4.40
2018-09-28T11:51:13.363Z,5.27
2018-09-28T11:53:40.606Z,6.10
2018-09-28T11:56:07.832Z,5.17
2018-09-28T11:58:35.077Z,8.27
2018-09-28T12:01:02.326Z,5.53
2018-09-28T12:03:29.676Z,4.37
2018-09-28T12:05:56.844Z,4.10
2018-09-28T12:08:24.065Z,3.80
2018-09-28T12:10:51.375Z,4.90
2018-09-28T12:13:19.565Z,3.10
2018-09-28T12:15:46.818Z,4.83
2018-09-28T12:18:14.066Z,3.90
2018-09-28T12:20:41.821Z,3.97
2018-09-28T12:23:10.044Z,5.60
2018-09-28T12:25:37.276Z,6.73
2018-09-28T12:28:04.528Z,6.10
2018-09-28T12:30:31.751Z,4.93
2018-09-28T12:32:58.979Z,3.83
2018-09-28T12:35:26.235Z,6.07
2018-09-28T12:37:53.453Z,4.80
2018-09-28T12:40:20.687Z,7.37
2018-09-28T12:42:47.965Z,3.50
2018-09-28T12:45:15.272Z,5.43
2018-09-28T12:47:42.402Z,5.30
2018-09-28T12:50:09.652Z,3.33
2018-09-28T12:52:36.917Z,6.27
2018-09-28T12:55:04.200Z,3.53
2018-09-28T12:57:31.417Z,3.40
2018-09-28T12:59:58.629Z,6.23
2018-09-28T13:02:25.960Z,4.40
2018-09-28T13:04:53.076Z,5.70
2018-09-28T13:07:20.447Z,2.67
2018-09-28T13:09:47.652Z,5.73
2018-09-28T13:12:14.939Z,3.07
2018-09-28T13:14:42.180Z,2.43
2018-09-28T13:17:09.419Z,5.43
2018-09-28T13:19:37.724Z,4.23
2018-09-28T13:22:04.973Z,7.23
2018-09-28T13:24:32.211Z,4.00
2018-09-28T13:26:59.464Z,3.60
2018-09-28T13:29:26.681Z,3.83
2018-09-28T13:31:53.917Z,4.03
2018-09-28T13:34:21.108Z,6.13
2018-09-28T13:36:48.430Z,4.47
2018-09-28T13:39:15.593Z,6.30
2018-09-28T13:41:42.832Z,4.67
2018-09-28T13:44:10.063Z,6.30
2018-09-28T13:46:38.292Z,4.37
2018-09-28T13:49:05.569Z,3.43
2018-09-28T13:51:32.780Z,3.03
2018-09-28T13:54:00.106Z,3.83
2018-09-28T13:56:27.389Z,3.97
2018-09-28T13:58:54.568Z,4.70
2018-09-28T14:01:21.920Z,3.03
2018-09-28T14:03:49.157Z,6.17
2018-09-28T14:06:16.504Z,3.07
2018-09-28T14:08:43.741Z,3.70
2018-09-28T14:11:12.207Z,3.70
2018-09-28T14:13:39.449Z,4.13
2018-09-28T14:16:06.783Z,4.37
2018-09-28T14:18:34.000Z,3.20
2018-09-28T14:21:02.396Z,2.53
2018-09-28T14:23:30.644Z,3.73
2018-09-28T14:25:57.864Z,5.60
2018-09-28T14:28:25.379Z,6.83
2018-09-28T14:30:53.532Z,4.00
2018-09-28T14:33:20.785Z,6.03
2018-09-28T14:35:48.029Z,9.07
2018-09-28T14:38:15.301Z,4.07
2018-09-28T14:40:42.570Z,4.23
2018-09-28T14:43:09.821Z,4.27
2018-09-28T14:45:37.049Z,3.80
2018-09-28T14:48:04.322Z,7.20
2018-09-28T14:50:31.554Z,3.27
2018-09-28T14:52:58.813Z,6.60
2018-09-28T14:55:26.055Z,5.23
2018-09-28T14:57:53.292Z,3.13
2018-09-28T15:00:20.661Z,4.20
2018-09-28T15:02:47.828Z,6.80
2018-09-28T15:05:14.988Z,5.20
2018-09-28T15:07:42.295Z,6.10
2018-09-28T15:10:09.504Z,2.97
2018-09-28T15:12:36.760Z,3.53
2018-09-28T15:15:04.012Z,3.93
2018-09-28T15:17:31.964Z,6.13
2018-09-28T15:19:59.202Z,4.13
2018-09-28T15:22:26.473Z,3.90
2018-09-28T15:24:53.692Z,3.57
2018-09-28T15:27:20.980Z,4.23
2018-09-28T15:29:48.300Z,5.10
2018-09-28T15:32:15.611Z,3.67
2018-09-28T15:34:43.556Z,5.00
2018-09-28T15:37:10.779Z,4.03
2018-09-28T15:39:38.013Z,4.57
2018-09-28T15:42:05.281Z,4.23
2018-09-28T15:44:32.492Z,3.93
2018-09-28T15:46:59.881Z,5.17
2018-09-28T15:49:27.104Z,6.67
2018-09-28T15:51:54.371Z,6.47
2018-09-28T15:54:21.590Z,3.17
2018-09-28T15:56:48.932Z,4.90
2018-09-28T15:59:16.129Z,5.70
2018-09-28T16:01:43.368Z,5.87
2018-09-28T16:04:10.626Z,5.93
2018-09-28T16:06:38.081Z,4.47
2018-09-28T16:09:06.645Z,4.93
2018-09-28T16:11:33.904Z,5.80
2018-09-28T16:14:01.181Z,6.23
2018-09-28T16:16:28.428Z,7.40
2018-09-28T16:18:56.684Z,5.37
2018-09-28T16:21:23.925Z,5.93
2018-09-28T16:23:51.178Z,5.07
2018-09-28T16:26:18.404Z,4.50
2018-09-28T16:28:45.657Z,4.13
2018-09-28T16:31:12.880Z,6.30
2018-09-28T16:33:40.125Z,3.97
2018-09-28T16:36:07.503Z,5.60
2018-09-28T16:38:34.751Z,5.00
2018-09-28T16:41:01.976Z,4.47
2018-09-28T16:43:29.223Z,5.47
2018-09-28T16:45:56.439Z,5.23
2018-09-28T16:48:23.683Z,5.27
2018-09-28T16:50:50.904Z,4.93
2018-09-28T16:53:18.164Z,5.07
2018-09-28T16:55:45.469Z,5.00
2018-09-28T16:58:12.713Z,4.63
2018-09-28T17:00:39.933Z,5.57
2018-09-28T17:03:07.855Z,5.40
2018-09-28T17:05:35.359Z,8.50
2018-09-28T17:08:02.661Z,5.07
2018-09-28T17:10:29.901Z,7.73
2018-09-28T17:12:57.153Z,5.23
2018-09-28T17:15:25.171Z,7.43
2018-09-28T17:17:52.445Z,6.10
2018-09-28T17:20:19.699Z,6.30
2018-09-28T17:22:47.032Z,5.87
2018-09-28T17:25:14.345Z,6.90
2018-09-28T17:27:41.590Z,4.97
2018-09-28T17:30:08.848Z,10.37
2018-09-28T17:32:36.088Z,10.20
2018-09-28T17:35:03.407Z,65.80
2018-09-28T17:37:30.672Z,15.27
2018-09-28T17:39:57.928Z,77.30
2018-09-28T17:42:25.200Z,270.33
2018-09-28T17:44:52.588Z,281.73
2018-09-28T17:47:19.887Z,23.37
2018-09-28T17:49:47.146Z,28.00
2018-09-28T17:52:14.414Z,5.90
2018-09-28T17:54:41.674Z,4.87
2018-09-28T17:57:08.949Z,6.07
2018-09-28T17:59:36.251Z,9.80
2018-09-28T18:02:03.448Z,7.60
2018-09-28T18:04:30.688Z,7.17
2018-09-28T18:06:57.944Z,4.90
2018-09-28T18:09:25.168Z,4.80
2018-09-28T18:11:52.441Z,5.20
2018-09-28T18:14:19.827Z,6.00
2018-09-28T18:16:46.993Z,6.43
2018-09-28T18:19:14.216Z,9.13
2018-09-28T18:21:41.487Z,8.73
2018-09-28T18:24:08.808Z,10.47
2018-09-28T18:26:36.123Z,8.33
2018-09-28T18:29:03.463Z,8.90
2018-09-28T18:31:30.837Z,7.70
2018-09-28T18:33:58.110Z,7.00
2018-09-28T18:36:25.627Z,7.00
2018-09-28T18:38:53.564Z,8.40
2018-09-28T18:41:20.811Z,13.40
2018-09-28T18:43:48.068Z,17.57
2018-09-28T18:46:16.349Z,13.10
2018-09-28T18:48:43.600Z,14.80
2018-09-28T18:51:10.861Z,9.27
2018-09-28T18:53:38.154Z,10.33
2018-09-28T18:56:05.583Z,11.27
2018-09-28T18:58:33.371Z,9.07
2018-09-28T19:01:01.609Z,13.43
2018-09-28T19:03:28.845Z,7.83
2018-09-28T19:05:56.138Z,10.60
2018-09-28T19:08:23.336Z,9.57
2018-09-28T19:10:50.716Z,13.03
2018-09-28T19:13:18.077Z,8.37
2018-09-28T19:15:46.145Z,7.50
2018-09-28T19:18:13.421Z,8.43
2018-09-28T19:20:40.774Z,5.43
2018-09-28T19:23:08.049Z,5.37
2018-09-28T19:25:35.363Z,12.40
2018-09-28T19:28:02.645Z,7.20
2018-09-28T19:30:29.916Z,7.13
2018-09-28T19:32:57.153Z,7.20
2018-09-28T19:35:24.404Z,9.80
2018-09-28T19:37:52.408Z,5.77
2018-09-28T19:40:19.648Z,5.63
2018-09-28T19:42:46.896Z,8.10
2018-09-28T19:45:14.137Z,7.23
2018-09-28T19:47:42.383Z,7.83
2018-09-28T19:50:09.690Z,8.90
2018-09-28T19:52:36.924Z,9.90
2018-09-28T19:55:04.222Z,11.03
2018-09-28T19:57:31.488Z,11.03
2018-09-28T19:59:58.733Z,6.80
2018-09-28T20:02:25.960Z,11.53
2018-09-28T20:04:53.194Z,11.63
2018-09-28T20:07:20.476Z,17.70
2018-09-28T20:09:47.712Z,8.73
2018-09-28T20:12:14.944Z,8.33
2018-09-28T20:14:42.225Z,6.90
2018-09-28T20:17:09.508Z,6.57
2018-09-28T20:19:36.760Z,8.50
2018-09-28T20:22:07.668Z,8.50
2018-09-28T20:24:34.946Z,12.23
2018-09-28T20:27:02.224Z,11.87
2018-09-28T20:29:29.988Z,10.40
2018-09-28T20:31:57.221Z,8.73
2018-09-28T20:34:24.438Z,11.27
2018-09-28T20:36:51.727Z,8.30
2018-09-28T20:39:18.996Z,12.03
2018-09-28T20:41:46.231Z,15.03
2018-09-28T20:44:14.460Z,9.33
2018-09-28T20:46:41.745Z,11.30
2018-09-28T20:49:08.997Z,13.67
2018-09-28T20:51:36.504Z,13.00
2018-09-28T20:54:03.783Z,8.90
2018-09-28T20:56:30.992Z,7.70
2018-09-28T20:58:58.248Z,9.33
2018-09-28T21:01:25.924Z,11.13
2018-09-28T21:03:53.160Z,9.60
2018-09-28T21:06:20.845Z,13.60
2018-09-28T21:08:48.101Z,11.10
2018-09-28T21:11:15.380Z,12.63
2018-09-28T21:13:42.630Z,9.70
2018-09-28T21:16:09.909Z,10.57
2018-09-28T21:18:37.193Z,11.03
2018-09-28T21:21:04.572Z,10.70
2018-09-28T21:23:31.897Z,10.23
2018-09-28T21:25:59.144Z,9.43
2018-09-28T21:28:26.376Z,13.80
2018-09-28T21:30:53.641Z,11.03
2018-09-28T21:33:20.923Z,10.83
2018-09-28T21:35:48.178Z,9.90
2018-09-28T21:38:15.412Z,8.87
2018-09-28T21:40:42.648Z,9.03
2018-09-28T21:43:09.900Z,9.80
2018-09-28T21:45:37.160Z,9.50
2018-09-28T21:48:04.420Z,7.27
2018-09-28T21:50:31.739Z,6.23
2018-09-28T21:52:59.012Z,6.60
2018-09-28T21:55:26.297Z,7.63
2018-09-28T21:57:53.564Z,6.20
2018-09-28T22:00:20.864Z,5.43
2018-09-28T22:02:48.101Z,6.23
2018-09-28T22:05:15.503Z,5.47
2018-09-28T22:07:42.789Z,6.67
2018-09-28T22:10:10.039Z,6.63
2018-09-28T22:12:37.292Z,6.10
2018-09-28T22:15:04.600Z,7.77
2018-09-28T22:17:31.882Z,6.07
2018-09-28T22:19:59.129Z,5.00
2018-09-28T22:22:26.356Z,5.93
2018-09-28T22:24:54.272Z,5.00
2018-09-28T22:27:21.545Z,6.67
2018-09-28T22:29:48.786Z,6.30
2018-09-28T22:32:16.547Z,7.23
2018-09-28T22:34:43.814Z,5.53
2018-09-28T22:37:11.092Z,5.03
2018-09-28T22:39:38.411Z,5.93
2018-09-28T22:42:05.692Z,6.23
2018-09-28T22:44:32.948Z,4.87
2018-09-28T22:47:00.858Z,8.20
2018-09-28T22:49:28.109Z,7.13
2018-09-28T22:51:55.384Z,5.80
2018-09-28T22:54:22.616Z,6.73
2018-09-28T22:56:49.880Z,5.53
2018-09-28T22:59:17.115Z,6.80
2018-09-28T23:01:44.357Z,4.83
2018-09-28T23:04:11.680Z,5.93
2018-09-28T23:06:38.904Z,6.10
2018-09-28T23:09:07.258Z,6.00
2018-09-28T23:11:34.537Z,6.70
2018-09-28T23:14:01.786Z,8.87
2018-09-28T23:16:29.044Z,5.40
2018-09-28T23:18:56.289Z,4.80
2018-09-28T23:21:23.562Z,5.30
2018-09-28T23:23:50.799Z,6.20
2018-09-28T23:26:18.048Z,4.90
2018-09-28T23:28:45.302Z,4.97
2018-09-28T23:31:12.555Z,4.63
2018-09-28T23:33:39.797Z,3.93
2018-09-28T23:36:07.104Z,5.90
2018-09-28T23:38:34.836Z,5.70
2018-09-28T23:41:02.073Z,6.03
2018-09-28T23:43:29.341Z,6.13
2018-09-28T23:45:56.596Z,8.17
2018-09-28T23:48:23.852Z,5.30
2018-09-28T23:50:51.084Z,4.87
2018-09-28T23:53:18.333Z,5.67
2018-09-28T23:55:45.557Z,6.40
2018-09-28T23:58:12.788Z,5.70
